createdAt,value
2018-10-01T00:00:16.350Z,9.00
2018-10-01T00:01:16.214Z,7.00
2018-10-01T00:02:16.287Z,7.70
2018-10-01T00:03:16.249Z,10.60
2018-10-01T00:04:16.223Z,10.60
2018-10-01T00:05:16.120Z,7.20
2018-10-01T00:06:16.256Z,8.60
2018-10-01T00:07:16.110Z,10.00
2018-10-01T00:08:16.307Z,9.10
2018-10-01T00:09:16.075Z,13.40
2018-10-01T00:10:16.257Z,9.40
2018-10-01T00:11:16.085Z,11.20
2018-10-01T00:12:16.048Z,9.10
2018-10-01T00:13:16.032Z,14.20
2018-10-01T00:14:16.125Z,10.20
2018-10-01T00:15:16.030Z,8.20
2018-10-01T00:16:16.024Z,12.40
2018-10-01T00:17:16.050Z,11.10
2018-10-01T00:18:16.020Z,10.50
2018-10-01T00:19:16.010Z,8.30
2018-10-01T00:20:15.959Z,9.70
2018-10-01T00:21:15.984Z,8.60
2018-10-01T00:22:15.951Z,9.10
2018-10-01T00:23:16.008Z,7.70
2018-10-01T00:24:15.998Z,9.70
2018-10-01T00:25:15.902Z,7.80
2018-10-01T00:26:16.827Z,10.60
2018-10-01T00:27:15.924Z,9.70
2018-10-01T00:28:15.971Z,13.50
2018-10-01T00:29:15.897Z,12.70
2018-10-01T00:30:16.184Z,11.60
2018-10-01T00:31:15.966Z,7.90
2018-10-01T00:32:15.823Z,9.90
2018-10-01T00:33:15.998Z,10.00
2018-10-01T00:34:15.818Z,10.00
2018-10-01T00:35:15.791Z,8.30
2018-10-01T00:36:16.019Z,9.60
2018-10-01T00:37:15.957Z,10.30
2018-10-01T00:38:16.020Z,11.70
2018-10-01T00:39:15.745Z,8.80
2018-10-01T00:40:15.785Z,11.00
2018-10-01T00:41:15.799Z,10.00
2018-10-01T00:42:15.813Z,7.90
2018-10-01T00:43:15.743Z,8.90
2018-10-01T00:44:15.709Z,6.80
2018-10-01T00:45:15.680Z,8.50
2018-10-01T00:46:15.672Z,9.90
2018-10-01T00:47:15.735Z,8.80
2018-10-01T00:48:15.659Z,9.50
2018-10-01T00:49:15.719Z,8.90
2018-10-01T00:50:15.725Z,7.40
2018-10-01T00:51:15.663Z,11.20
2018-10-01T00:52:15.615Z,9.80
2018-10-01T00:53:15.619Z,9.80
2018-10-01T00:54:15.580Z,9.30
2018-10-01T00:55:15.593Z,12.50
2018-10-01T00:56:15.559Z,10.40
2018-10-01T00:57:15.606Z,9.80
2018-10-01T00:58:15.576Z,8.30
2018-10-01T00:59:15.536Z,9.70
2018-10-01T01:00:15.514Z,9.10
2018-10-01T01:01:15.641Z,8.60
2018-10-01T01:02:15.491Z,9.10
2018-10-01T01:03:15.587Z,10.20
2018-10-01T01:04:15.486Z,9.80
2018-10-01T01:05:15.507Z,13.00
2018-10-01T01:06:15.482Z,8.60
2018-10-01T01:07:15.435Z,14.60
2018-10-01T01:08:15.429Z,9.70
2018-10-01T01:09:15.515Z,10.50
2018-10-01T01:10:15.406Z,10.00
2018-10-01T01:11:15.487Z,10.10
2018-10-01T01:12:15.384Z,9.30
2018-10-01T01:13:15.378Z,9.80
2018-10-01T01:14:15.462Z,8.00
2018-10-01T01:15:15.415Z,10.50
2018-10-01T01:16:15.364Z,13.10
2018-10-01T01:17:15.355Z,9.00
2018-10-01T01:18:15.403Z,12.60
2018-10-01T01:19:15.344Z,9.70
2018-10-01T01:20:15.304Z,9.40
2018-10-01T01:21:15.322Z,8.90
2018-10-01T01:22:15.288Z,11.50
2018-10-01T01:23:15.317Z,8.80
2018-10-01T01:24:15.339Z,8.80
2018-10-01T01:25:15.244Z,12.30
2018-10-01T01:26:15.315Z,10.10
2018-10-01T01:27:15.226Z,8.70
2018-10-01T01:28:15.355Z,8.60
2018-10-01T01:29:15.228Z,9.00
2018-10-01T01:30:15.198Z,8.70
2018-10-01T01:31:15.297Z,9.00
2018-10-01T01:32:15.220Z,11.40
2018-10-01T01:33:15.157Z,9.70
2018-10-01T01:34:15.158Z,9.30
2018-10-01T01:35:15.336Z,10.50
2018-10-01T01:36:15.220Z,9.60
2018-10-01T01:37:15.215Z,8.30
2018-10-01T01:38:15.102Z,11.30
2018-10-01T01:39:15.403Z,10.80
2018-10-01T01:40:15.399Z,10.60
2018-10-01T01:41:15.070Z,9.70
2018-10-01T01:42:15.157Z,10.80
2018-10-01T01:43:15.077Z,10.80
2018-10-01T01:44:15.046Z,11.70
2018-10-01T01:45:15.102Z,11.90
2018-10-01T01:46:15.175Z,12.20
2018-10-01T01:47:15.014Z,8.00
2018-10-01T01:48:15.108Z,11.30
2018-10-01T01:49:15.279Z,12.20
2018-10-01T01:50:15.680Z,10.20
2018-10-01T01:51:15.155Z,12.90
2018-10-01T01:52:15.167Z,10.60
2018-10-01T01:53:14.942Z,12.10
2018-10-01T01:54:16.122Z,9.40
2018-10-01T01:55:14.967Z,12.30
2018-10-01T01:56:15.013Z,11.60
2018-10-01T01:57:14.894Z,14.20
2018-10-01T01:58:14.950Z,14.00
2018-10-01T01:59:16.253Z,12.20
2018-10-01T02:00:14.901Z,17.40
2018-10-01T02:01:15.024Z,12.70
2018-10-01T02:02:14.949Z,10.50
2018-10-01T02:03:14.834Z,13.90
2018-10-01T02:04:14.977Z,10.20
2018-10-01T02:05:14.921Z,10.30
2018-10-01T02:06:14.831Z,13.90
2018-10-01T02:07:14.993Z,14.20
2018-10-01T02:08:14.892Z,11.20
2018-10-01T02:09:14.770Z,11.40
2018-10-01T02:10:15.966Z,13.10
2018-10-01T02:11:14.743Z,13.40
2018-10-01T02:12:15.117Z,11.20
2018-10-01T02:13:14.740Z,11.80
2018-10-01T02:14:15.525Z,13.50
2018-10-01T02:15:14.900Z,15.50
2018-10-01T02:16:14.702Z,16.60
2018-10-01T02:17:14.864Z,14.60
2018-10-01T02:18:14.720Z,13.30
2018-10-01T02:19:14.691Z,13.70
2018-10-01T02:20:16.002Z,14.60
2018-10-01T02:21:14.704Z,10.90
2018-10-01T02:22:14.656Z,13.30
2018-10-01T02:23:15.760Z,11.60
2018-10-01T02:24:14.726Z,13.40
2018-10-01T02:25:14.625Z,10.80
2018-10-01T02:26:14.663Z,13.80
2018-10-01T02:27:14.804Z,12.60
2018-10-01T02:28:14.554Z,13.00
2018-10-01T02:29:14.552Z,17.00
2018-10-01T02:30:14.580Z,17.10
2018-10-01T02:31:14.622Z,11.90
2018-10-01T02:32:14.516Z,12.60
2018-10-01T02:33:14.671Z,11.60
2018-10-01T02:34:14.488Z,13.70
2018-10-01T02:35:14.478Z,12.20
2018-10-01T02:36:14.481Z,13.00
2018-10-01T02:37:14.457Z,13.00
2018-10-01T02:38:14.653Z,15.90
2018-10-01T02:39:14.497Z,10.60
2018-10-01T02:40:14.430Z,11.80
2018-10-01T02:41:15.242Z,13.00
2018-10-01T02:42:14.558Z,11.90
2018-10-01T02:43:14.396Z,11.90
2018-10-01T02:44:15.235Z,16.30
2018-10-01T02:45:14.562Z,15.90
2018-10-01T02:46:14.462Z,15.90
2018-10-01T02:47:14.580Z,14.20
2018-10-01T02:48:14.351Z,14.80
2018-10-01T02:49:16.418Z,12.50
2018-10-01T02:50:14.350Z,13.30
2018-10-01T02:51:14.304Z,13.80
2018-10-01T02:52:14.346Z,13.60
2018-10-01T02:53:14.372Z,14.80
2018-10-01T02:54:14.494Z,15.80
2018-10-01T02:55:14.321Z,12.70
2018-10-01T02:56:14.374Z,11.90
2018-10-01T02:57:15.439Z,12.40
2018-10-01T02:58:15.077Z,10.80
2018-10-01T02:59:14.269Z,14.60
2018-10-01T03:00:14.261Z,12.90
2018-10-01T03:01:14.239Z,13.90
2018-10-01T03:02:14.220Z,12.90
2018-10-01T03:03:14.306Z,12.50
2018-10-01T03:04:14.561Z,12.80
2018-10-01T03:05:14.153Z,12.70
2018-10-01T03:06:14.727Z,15.40
2018-10-01T03:07:14.235Z,14.00
2018-10-01T03:08:14.161Z,12.40
2018-10-01T03:09:14.717Z,12.60
2018-10-01T03:10:14.147Z,13.20
2018-10-01T03:11:14.368Z,11.70
2018-10-01T03:12:14.138Z,11.90
2018-10-01T03:13:15.024Z,11.00
2018-10-01T03:14:14.246Z,14.10
2018-10-01T03:15:15.141Z,15.50
2018-10-01T03:16:14.102Z,12.40
2018-10-01T03:17:14.033Z,12.40
2018-10-01T03:18:14.099Z,16.20
2018-10-01T03:19:14.145Z,13.80
2018-10-01T03:20:14.774Z,12.40
2018-10-01T03:21:14.208Z,16.10
2018-10-01T03:22:13.979Z,19.10
2018-10-01T03:23:13.985Z,13.70
2018-10-01T03:24:14.076Z,11.40
2018-10-01T03:25:13.986Z,11.60
2018-10-01T03:26:14.129Z,11.50
2018-10-01T03:27:14.084Z,10.90
2018-10-01T03:28:13.905Z,12.80
2018-10-01T03:29:13.906Z,14.10
2018-10-01T03:30:13.946Z,14.50
2018-10-01T03:31:13.919Z,14.50
2018-10-01T03:32:13.863Z,15.80
2018-10-01T03:33:13.897Z,13.10
2018-10-01T03:34:13.906Z,11.10
2018-10-01T03:35:13.840Z,15.80
2018-10-01T03:36:14.002Z,14.80
2018-10-01T03:37:13.829Z,14.30
2018-10-01T03:38:13.904Z,15.80
2018-10-01T03:39:14.139Z,15.40
2018-10-01T03:40:13.907Z,10.30
2018-10-01T03:41:16.098Z,11.20
2018-10-01T03:42:14.143Z,11.30
2018-10-01T03:43:14.026Z,16.50
2018-10-01T03:44:13.870Z,14.60
2018-10-01T03:45:13.799Z,13.70
2018-10-01T03:46:13.936Z,11.70
2018-10-01T03:47:14.150Z,16.70
2018-10-01T03:48:13.713Z,15.50
2018-10-01T03:49:13.684Z,10.40
2018-10-01T03:50:13.905Z,11.60
2018-10-01T03:51:14.475Z,9.40
2018-10-01T03:52:13.651Z,10.30
2018-10-01T03:53:14.430Z,13.10
2018-10-01T03:54:13.899Z,13.30
2018-10-01T03:55:13.874Z,14.40
2018-10-01T03:56:13.679Z,14.10
2018-10-01T03:57:13.629Z,13.00
2018-10-01T03:58:13.614Z,10.80
2018-10-01T03:59:13.590Z,16.00
2018-10-01T04:00:13.708Z,13.60
2018-10-01T04:01:13.552Z,11.30
2018-10-01T04:02:13.688Z,11.60
2018-10-01T04:03:13.527Z,13.20
2018-10-01T04:04:13.516Z,13.40
2018-10-01T04:05:13.509Z,12.30
2018-10-01T04:06:13.731Z,10.30
2018-10-01T04:07:13.594Z,12.50
2018-10-01T04:08:13.649Z,14.50
2018-10-01T04:09:13.517Z,15.60
2018-10-01T04:10:13.544Z,11.60
2018-10-01T04:11:13.441Z,12.70
2018-10-01T04:12:13.462Z,13.80
2018-10-01T04:13:13.485Z,12.40
2018-10-01T04:14:13.412Z,11.30
2018-10-01T04:15:13.399Z,12.50
2018-10-01T04:16:13.386Z,12.20
2018-10-01T04:17:13.411Z,12.20
2018-10-01T04:18:13.498Z,10.40
2018-10-01T04:19:13.359Z,14.30
2018-10-01T04:20:13.400Z,9.90
2018-10-01T04:21:13.361Z,20.20
2018-10-01T04:22:13.322Z,12.40
2018-10-01T04:23:13.337Z,9.80
2018-10-01T04:24:13.419Z,8.80
2018-10-01T04:25:13.290Z,12.30
2018-10-01T04:26:13.462Z,10.80
2018-10-01T04:27:13.289Z,11.40
2018-10-01T04:28:13.288Z,12.90
2018-10-01T04:29:13.248Z,12.50
2018-10-01T04:30:13.703Z,16.20
2018-10-01T04:31:13.308Z,10.20
2018-10-01T04:32:13.529Z,14.20
2018-10-01T04:33:13.247Z,10.90
2018-10-01T04:34:13.294Z,12.50
2018-10-01T04:35:13.184Z,12.40
2018-10-01T04:36:13.257Z,11.10
2018-10-01T04:37:13.168Z,12.50
2018-10-01T04:38:13.236Z,12.10
2018-10-01T04:39:13.142Z,8.90
2018-10-01T04:40:13.419Z,12.30
2018-10-01T04:41:13.275Z,11.60
2018-10-01T04:42:13.490Z,8.80
2018-10-01T04:43:13.123Z,12.70
2018-10-01T04:44:13.102Z,13.10
2018-10-01T04:45:13.100Z,10.90
2018-10-01T04:46:13.068Z,9.80
2018-10-01T04:47:13.055Z,12.40
2018-10-01T04:48:13.059Z,16.60
2018-10-01T04:49:13.184Z,12.80
2018-10-01T04:50:13.028Z,11.60
2018-10-01T04:51:13.062Z,13.40
2018-10-01T04:52:13.009Z,11.10
2018-10-01T04:53:13.034Z,11.40
2018-10-01T04:54:13.029Z,14.50
2018-10-01T04:55:12.964Z,10.60
2018-10-01T04:56:12.975Z,12.00
2018-10-01T04:57:13.086Z,13.70
2018-10-01T04:58:13.049Z,11.30
2018-10-01T04:59:12.970Z,11.90
2018-10-01T05:00:12.943Z,12.50
2018-10-01T05:01:13.039Z,10.50
2018-10-01T05:02:13.008Z,12.30
2018-10-01T05:03:12.968Z,12.30
2018-10-01T05:04:12.949Z,10.00
2018-10-01T05:05:12.884Z,9.30
2018-10-01T05:06:12.926Z,8.90
2018-10-01T05:07:12.843Z,11.50
2018-10-01T05:08:12.888Z,9.50
2018-10-01T05:09:12.918Z,11.50
2018-10-01T05:10:12.835Z,10.20
2018-10-01T05:11:12.802Z,13.60
2018-10-01T05:12:12.801Z,13.60
2018-10-01T05:13:12.843Z,12.70
2018-10-01T05:14:12.940Z,11.70
2018-10-01T05:15:12.773Z,9.50
2018-10-01T05:16:12.745Z,8.10
2018-10-01T05:17:12.728Z,13.30
2018-10-01T05:18:12.752Z,10.30
2018-10-01T05:19:12.709Z,11.50
2018-10-01T05:20:12.872Z,10.30
2018-10-01T05:21:12.685Z,10.40
2018-10-01T05:22:12.800Z,9.00
2018-10-01T05:23:12.817Z,12.90
2018-10-01T05:24:12.656Z,12.50
2018-10-01T05:25:12.672Z,12.90
2018-10-01T05:26:12.630Z,10.80
2018-10-01T05:27:12.732Z,8.80
2018-10-01T05:28:12.626Z,10.40
2018-10-01T05:29:12.707Z,10.30
2018-10-01T05:30:12.632Z,15.10
2018-10-01T05:31:12.661Z,11.20
2018-10-01T05:32:12.673Z,13.50
2018-10-01T05:33:12.582Z,11.10
2018-10-01T05:34:12.543Z,14.60
2018-10-01T05:35:12.573Z,15.00
2018-10-01T05:36:12.521Z,10.80
2018-10-01T05:37:12.528Z,9.80
2018-10-01T05:38:12.504Z,12.30
2018-10-01T05:39:12.680Z,12.20
2018-10-01T05:40:12.514Z,12.60
2018-10-01T05:41:12.641Z,9.00
2018-10-01T05:42:12.638Z,13.90
2018-10-01T05:43:12.447Z,9.10
2018-10-01T05:44:12.437Z,15.00
2018-10-01T05:45:12.447Z,11.70
2018-10-01T05:46:12.643Z,9.30
2018-10-01T05:47:12.408Z,10.90
2018-10-01T05:48:12.644Z,13.50
2018-10-01T05:49:12.489Z,12.70
2018-10-01T05:50:12.579Z,10.60
2018-10-01T05:51:12.388Z,16.10
2018-10-01T05:52:12.401Z,11.90
2018-10-01T05:53:12.352Z,10.60
2018-10-01T05:54:12.399Z,11.70
2018-10-01T05:55:12.323Z,9.90
2018-10-01T05:56:12.344Z,13.40
2018-10-01T05:57:12.300Z,15.30
2018-10-01T05:58:12.449Z,11.10
2018-10-01T05:59:12.344Z,15.90
2018-10-01T06:00:12.405Z,11.40
2018-10-01T06:01:12.316Z,16.60
2018-10-01T06:02:12.245Z,11.80
2018-10-01T06:03:12.247Z,11.90
2018-10-01T06:04:12.280Z,9.20
2018-10-01T06:05:12.352Z,12.00
2018-10-01T06:06:12.230Z,9.40
2018-10-01T06:07:12.187Z,8.90
2018-10-01T06:08:12.180Z,8.30
2018-10-01T06:09:12.175Z,12.60
2018-10-01T06:10:12.218Z,14.00
2018-10-01T06:11:12.181Z,12.20
2018-10-01T06:12:12.160Z,11.80
2018-10-01T06:13:12.198Z,12.90
2018-10-01T06:14:12.197Z,16.60
2018-10-01T06:15:12.104Z,12.70
2018-10-01T06:16:12.098Z,13.60
2018-10-01T06:17:12.236Z,11.30
2018-10-01T06:18:12.133Z,9.10
2018-10-01T06:19:12.243Z,9.90
2018-10-01T06:20:12.110Z,9.50
2018-10-01T06:21:12.042Z,8.90
2018-10-01T06:22:12.055Z,13.50
2018-10-01T06:23:12.021Z,8.30
2018-10-01T06:24:12.006Z,10.50
2018-10-01T06:25:12.059Z,12.40
2018-10-01T06:26:11.990Z,13.30
2018-10-01T06:27:12.031Z,9.50
2018-10-01T06:28:11.962Z,9.00
2018-10-01T06:29:11.964Z,10.30
2018-10-01T06:30:11.950Z,12.80
2018-10-01T06:31:11.985Z,11.20
2018-10-01T06:32:12.055Z,9.90
2018-10-01T06:33:11.906Z,13.20
2018-10-01T06:34:11.915Z,12.70
2018-10-01T06:35:11.992Z,11.90
2018-10-01T06:36:11.961Z,5.70
2018-10-01T06:37:11.876Z,9.80
2018-10-01T06:38:11.959Z,11.20
2018-10-01T06:39:11.848Z,11.60
2018-10-01T06:40:11.849Z,11.60
2018-10-01T06:41:11.846Z,8.50
2018-10-01T06:42:11.891Z,11.80
2018-10-01T06:43:11.830Z,8.90
2018-10-01T06:44:11.791Z,9.80
2018-10-01T06:45:11.781Z,11.80
2018-10-01T06:46:11.767Z,13.90
2018-10-01T06:47:11.838Z,9.60
2018-10-01T06:48:11.841Z,7.80
2018-10-01T06:49:11.754Z,10.70
2018-10-01T06:50:11.719Z,14.30
2018-10-01T06:51:11.764Z,9.20
2018-10-01T06:52:11.714Z,9.40
2018-10-01T06:53:11.728Z,8.90
2018-10-01T06:54:11.951Z,9.10
2018-10-01T06:55:11.667Z,7.30
2018-10-01T06:56:11.665Z,10.50
2018-10-01T06:57:11.659Z,8.60
2018-10-01T06:58:11.663Z,10.90
2018-10-01T06:59:11.749Z,7.90
2018-10-01T07:00:11.616Z,9.20
2018-10-01T07:01:11.720Z,8.20
2018-10-01T07:02:11.625Z,9.10
2018-10-01T07:03:11.638Z,10.50
2018-10-01T07:04:11.594Z,8.90
2018-10-01T07:05:11.596Z,11.10
2018-10-01T07:06:11.554Z,9.30
2018-10-01T07:07:11.564Z,9.10
2018-10-01T07:08:11.670Z,9.30
2018-10-01T07:09:11.573Z,7.30
2018-10-01T07:10:11.508Z,9.20
2018-10-01T07:11:11.511Z,8.10
2018-10-01T07:12:11.592Z,8.80
2018-10-01T07:13:11.479Z,10.30
2018-10-01T07:14:11.506Z,9.70
2018-10-01T07:15:11.478Z,8.80
2018-10-01T07:16:11.503Z,10.90
2018-10-01T07:17:11.531Z,10.50
2018-10-01T07:18:11.423Z,7.00
2018-10-01T07:19:11.457Z,8.00
2018-10-01T07:20:11.446Z,8.40
2018-10-01T07:21:11.550Z,10.90
2018-10-01T07:22:11.374Z,8.00
2018-10-01T07:23:11.508Z,8.20
2018-10-01T07:24:11.426Z,10.10
2018-10-01T07:25:11.457Z,8.10
2018-10-01T07:26:11.433Z,10.50
2018-10-01T07:27:11.325Z,7.80
2018-10-01T07:28:11.308Z,11.60
2018-10-01T07:29:11.318Z,6.30
2018-10-01T07:30:11.291Z,9.50
2018-10-01T07:31:11.310Z,6.10
2018-10-01T07:32:11.341Z,7.60
2018-10-01T07:33:11.259Z,7.40
2018-10-01T07:34:11.245Z,9.40
2018-10-01T07:35:11.281Z,4.90
2018-10-01T07:36:11.402Z,10.20
2018-10-01T07:37:11.339Z,7.60
2018-10-01T07:38:11.200Z,10.10
2018-10-01T07:39:11.191Z,8.50
2018-10-01T07:40:11.182Z,5.00
2018-10-01T07:41:11.388Z,7.60
2018-10-01T07:42:11.201Z,5.10
2018-10-01T07:43:11.147Z,7.50
2018-10-01T07:44:11.138Z,7.80
2018-10-01T07:45:11.332Z,7.20
2018-10-01T07:46:11.277Z,5.10
2018-10-01T07:47:11.270Z,8.50
2018-10-01T07:48:11.101Z,6.20
2018-10-01T07:49:11.103Z,7.10
2018-10-01T07:50:11.076Z,6.00
2018-10-01T07:51:11.299Z,6.90
2018-10-01T07:52:11.085Z,4.60
2018-10-01T07:53:11.061Z,4.50
2018-10-01T07:54:11.029Z,6.50
2018-10-01T07:55:11.117Z,5.60
2018-10-01T07:56:11.030Z,3.50
2018-10-01T07:57:11.081Z,6.70
2018-10-01T07:58:11.191Z,6.40
2018-10-01T07:59:10.976Z,7.30
2018-10-01T08:00:11.091Z,6.00
2018-10-01T08:01:10.974Z,5.10
2018-10-01T08:02:11.000Z,4.10
2018-10-01T08:03:11.096Z,4.80
2018-10-01T08:04:10.987Z,5.30
2018-10-01T08:05:10.920Z,4.80
2018-10-01T08:06:10.902Z,3.50
2018-10-01T08:07:10.976Z,5.50
2018-10-01T08:08:11.023Z,4.00
2018-10-01T08:09:10.879Z,5.10
2018-10-01T08:10:10.856Z,5.90
2018-10-01T08:11:11.010Z,3.20
2018-10-01T08:12:10.843Z,4.30
2018-10-01T08:13:10.850Z,4.90
2018-10-01T08:14:10.959Z,5.20
2018-10-01T08:15:10.803Z,4.80
2018-10-01T08:16:10.809Z,5.10
2018-10-01T08:17:10.786Z,6.60
2018-10-01T08:18:10.793Z,5.20
2018-10-01T08:19:10.777Z,3.50
2018-10-01T08:20:10.789Z,3.90
2018-10-01T08:21:10.762Z,6.00
2018-10-01T08:22:10.719Z,5.90
2018-10-01T08:23:10.772Z,8.50
2018-10-01T08:24:10.744Z,4.70
2018-10-01T08:25:10.690Z,4.50
2018-10-01T08:26:10.728Z,4.10
2018-10-01T08:27:10.675Z,6.20
2018-10-01T08:28:10.746Z,6.30
2018-10-01T08:29:10.736Z,4.30
2018-10-01T08:30:10.632Z,3.50
2018-10-01T08:31:10.637Z,4.20
2018-10-01T08:32:10.650Z,4.50
2018-10-01T08:33:10.650Z,4.90
2018-10-01T08:34:10.611Z,4.60
2018-10-01T08:35:10.632Z,5.50
2018-10-01T08:36:10.587Z,4.50
2018-10-01T08:37:10.558Z,3.20
2018-10-01T08:38:10.567Z,5.10
2018-10-01T08:39:10.677Z,4.00
2018-10-01T08:40:10.557Z,4.40
2018-10-01T08:41:10.515Z,6.50
2018-10-01T08:42:10.508Z,5.40
2018-10-01T08:43:10.510Z,4.00
2018-10-01T08:44:10.527Z,4.70
2018-10-01T08:45:10.493Z,4.90
2018-10-01T08:46:10.459Z,8.10
2018-10-01T08:47:10.572Z,2.50
2018-10-01T08:48:10.449Z,3.10
2018-10-01T08:49:10.637Z,3.50
2018-10-01T08:50:10.537Z,9.20
2018-10-01T08:51:10.542Z,3.80
2018-10-01T08:52:13.320Z,1.80
2018-10-01T08:53:10.476Z,3.60
2018-10-01T08:54:10.447Z,2.50
2018-10-01T08:55:10.857Z,2.20
2018-10-01T08:56:10.832Z,3.10
2018-10-01T08:57:10.345Z,4.80
2018-10-01T08:58:10.334Z,4.00
2018-10-01T08:59:10.419Z,5.90
2018-10-01T09:00:10.782Z,5.00
2018-10-01T09:01:10.417Z,4.60
2018-10-01T09:02:10.508Z,5.70
2018-10-01T09:03:10.317Z,4.40
2018-10-01T09:04:10.270Z,5.20
2018-10-01T09:05:10.668Z,5.30
2018-10-01T09:06:10.281Z,5.00
2018-10-01T09:07:10.270Z,2.20
2018-10-01T09:08:10.381Z,5.00
2018-10-01T09:09:10.889Z,3.50
2018-10-01T09:10:10.599Z,3.60
2018-10-01T09:11:10.304Z,4.40
2018-10-01T09:12:10.189Z,3.30
2018-10-01T09:13:10.163Z,3.40
2018-10-01T09:14:10.256Z,5.00
2018-10-01T09:15:10.470Z,5.40
2018-10-01T09:16:10.156Z,3.60
2018-10-01T09:17:10.140Z,3.90
2018-10-01T09:18:10.111Z,4.90
2018-10-01T09:19:10.103Z,3.60
2018-10-01T09:20:10.198Z,5.50
2018-10-01T09:21:10.174Z,3.50
2018-10-01T09:22:10.082Z,3.20
2018-10-01T09:23:10.112Z,2.80
2018-10-01T09:24:10.051Z,2.90
2018-10-01T09:25:10.037Z,3.70
2018-10-01T09:26:10.067Z,2.70
2018-10-01T09:27:10.025Z,5.30
2018-10-01T09:28:10.009Z,8.00
2018-10-01T09:29:10.200Z,7.50
2018-10-01T09:30:09.980Z,3.20
2018-10-01T09:31:10.087Z,6.70
2018-10-01T09:32:09.994Z,5.40
2018-10-01T09:33:10.009Z,7.20
2018-10-01T09:34:09.947Z,3.90
2018-10-01T09:35:09.943Z,5.30
2018-10-01T09:36:09.924Z,3.30
2018-10-01T09:37:10.054Z,3.80
2018-10-01T09:38:09.981Z,3.70
2018-10-01T09:39:09.878Z,4.40
2018-10-01T09:40:09.996Z,8.10
2018-10-01T09:41:09.873Z,4.00
2018-10-01T09:42:10.120Z,4.80
2018-10-01T09:43:10.173Z,4.40
2018-10-01T09:44:09.857Z,8.20
2018-10-01T09:45:09.820Z,4.90
2018-10-01T09:46:10.477Z,3.40
2018-10-01T09:47:12.253Z,6.80
2018-10-01T09:48:09.993Z,5.30
2018-10-01T09:49:09.775Z,4.00
2018-10-01T09:50:09.811Z,5.70
2018-10-01T09:51:11.664Z,6.00
2018-10-01T09:52:09.952Z,6.70
2018-10-01T09:53:09.779Z,6.20
2018-10-01T09:54:09.830Z,5.70
2018-10-01T09:55:09.709Z,2.20
2018-10-01T09:56:09.736Z,3.30
2018-10-01T09:57:09.705Z,3.80
2018-10-01T09:58:09.734Z,4.70
2018-10-01T09:59:10.184Z,2.40
2018-10-01T10:00:09.695Z,6.40
2018-10-01T10:01:09.732Z,5.50
2018-10-01T10:02:09.828Z,4.40
2018-10-01T10:03:09.991Z,4.40
2018-10-01T10:04:09.747Z,5.20
2018-10-01T10:05:09.876Z,4.10
2018-10-01T10:06:09.894Z,2.20
2018-10-01T10:07:11.495Z,3.60
2018-10-01T10:08:09.580Z,7.00
2018-10-01T10:09:09.602Z,3.30
2018-10-01T10:10:09.630Z,5.60
2018-10-01T10:11:09.549Z,3.30
2018-10-01T10:12:09.640Z,7.70
2018-10-01T10:13:09.535Z,3.50
2018-10-01T10:14:09.588Z,2.60
2018-10-01T10:15:09.577Z,3.60
2018-10-01T10:16:09.588Z,4.90
2018-10-01T10:17:09.743Z,6.20
2018-10-01T10:18:09.456Z,6.60
2018-10-01T10:19:09.441Z,3.20
2018-10-01T10:20:09.882Z,2.80
2018-10-01T10:21:09.420Z,4.40
2018-10-01T10:22:09.496Z,5.20
2018-10-01T10:23:09.793Z,4.30
2018-10-01T10:24:09.400Z,2.10
2018-10-01T10:25:09.705Z,2.70
2018-10-01T10:26:09.417Z,4.20
2018-10-01T10:27:09.435Z,4.90
2018-10-01T10:28:09.392Z,1.80
2018-10-01T10:29:09.337Z,4.40
2018-10-01T10:30:09.350Z,3.60
2018-10-01T10:31:09.324Z,5.50
2018-10-01T10:32:09.403Z,4.40
2018-10-01T10:33:09.387Z,6.20
2018-10-01T10:34:09.428Z,1.80
2018-10-01T10:35:09.271Z,3.60
2018-10-01T10:36:09.320Z,2.50
2018-10-01T10:37:09.273Z,3.40
2018-10-01T10:38:09.380Z,5.70
2018-10-01T10:39:09.237Z,2.80
2018-10-01T10:40:09.295Z,1.60
2018-10-01T10:41:09.217Z,2.90
2018-10-01T10:42:09.195Z,3.10
2018-10-01T10:43:09.206Z,4.20
2018-10-01T10:44:09.329Z,3.00
2018-10-01T10:45:09.157Z,1.80
2018-10-01T10:46:09.149Z,2.20
2018-10-01T10:47:09.170Z,2.90
2018-10-01T10:48:09.204Z,1.90
2018-10-01T10:49:09.126Z,2.20
2018-10-01T10:50:09.416Z,2.10
2018-10-01T10:51:09.090Z,2.80
2018-10-01T10:52:09.130Z,2.00
2018-10-01T10:53:09.093Z,2.40
2018-10-01T10:54:09.061Z,2.20
2018-10-01T10:55:09.050Z,4.50
2018-10-01T10:56:09.504Z,4.30
2018-10-01T10:57:09.141Z,3.30
2018-10-01T10:58:09.037Z,2.60
2018-10-01T10:59:09.247Z,4.50
2018-10-01T11:00:08.994Z,1.80
2018-10-01T11:01:08.993Z,3.20
2018-10-01T11:02:09.082Z,3.10
2018-10-01T11:03:08.983Z,2.10
2018-10-01T11:04:08.946Z,4.70
2018-10-01T11:05:08.943Z,5.50
2018-10-01T11:06:08.927Z,4.00
2018-10-01T11:07:08.985Z,2.50
2018-10-01T11:08:09.029Z,5.60
2018-10-01T11:09:08.905Z,5.50
2018-10-01T11:10:08.973Z,4.20
2018-10-01T11:11:09.001Z,4.90
2018-10-01T11:12:08.869Z,2.90
2018-10-01T11:13:08.851Z,4.90
2018-10-01T11:14:08.973Z,3.20
2018-10-01T11:15:09.067Z,4.00
2018-10-01T11:16:08.844Z,4.60
2018-10-01T11:17:08.815Z,2.50
2018-10-01T11:18:08.887Z,3.60
2018-10-01T11:19:09.011Z,1.60
2018-10-01T11:20:08.801Z,5.60
2018-10-01T11:21:08.816Z,2.40
2018-10-01T11:22:08.754Z,3.40
2018-10-01T11:23:08.779Z,2.80
2018-10-01T11:24:08.774Z,3.20
2018-10-01T11:25:08.939Z,2.30
2018-10-01T11:26:08.711Z,2.90
2018-10-01T11:27:08.860Z,2.80
2018-10-01T11:28:08.695Z,3.00
2018-10-01T11:29:08.792Z,3.40
2018-10-01T11:30:08.678Z,4.10
2018-10-01T11:31:08.785Z,3.90
2018-10-01T11:32:08.666Z,2.80
2018-10-01T11:33:08.647Z,3.70
2018-10-01T11:34:08.655Z,2.50
2018-10-01T11:35:08.840Z,3.10
2018-10-01T11:36:08.623Z,5.70
2018-10-01T11:37:08.637Z,4.90
2018-10-01T11:38:08.579Z,3.10
2018-10-01T11:39:08.635Z,5.30
2018-10-01T11:40:08.556Z,2.90
2018-10-01T11:41:08.555Z,5.10
2018-10-01T11:42:08.538Z,2.50
2018-10-01T11:43:08.538Z,2.70
2018-10-01T11:44:08.551Z,4.40
2018-10-01T11:45:08.631Z,4.90
2018-10-01T11:46:08.588Z,4.40
2018-10-01T11:47:08.481Z,3.80
2018-10-01T11:48:08.493Z,3.50
2018-10-01T11:49:08.584Z,3.70
2018-10-01T11:50:08.463Z,2.60
2018-10-01T11:51:08.568Z,3.30
2018-10-01T11:52:08.435Z,2.90
2018-10-01T11:53:08.454Z,1.90
2018-10-01T11:54:08.422Z,4.00
2018-10-01T11:55:08.485Z,2.80
2018-10-01T11:56:08.463Z,4.40
2018-10-01T11:57:08.450Z,3.40
2018-10-01T11:58:08.446Z,2.70
2018-10-01T11:59:08.366Z,3.60
2018-10-01T12:00:08.376Z,6.20
2018-10-01T12:01:08.334Z,4.80
2018-10-01T12:02:08.457Z,2.90
2018-10-01T12:03:08.516Z,2.70
2018-10-01T12:04:08.381Z,1.70
2018-10-01T12:05:08.322Z,3.30
2018-10-01T12:06:08.342Z,3.10
2018-10-01T12:07:08.293Z,3.10
2018-10-01T12:08:08.352Z,4.10
2018-10-01T12:09:08.307Z,4.50
2018-10-01T12:10:08.274Z,5.20
2018-10-01T12:11:08.451Z,3.70
2018-10-01T12:12:08.268Z,3.90
2018-10-01T12:13:08.297Z,4.00
2018-10-01T12:14:08.184Z,2.00
2018-10-01T12:15:08.237Z,4.80
2018-10-01T12:16:08.427Z,2.10
2018-10-01T12:17:08.152Z,2.50
2018-10-01T12:18:08.152Z,3.00
2018-10-01T12:19:08.276Z,4.50
2018-10-01T12:20:08.136Z,2.70
2018-10-01T12:21:08.165Z,3.40
2018-10-01T12:22:08.125Z,3.90
2018-10-01T12:23:08.161Z,3.40
2018-10-01T12:24:08.081Z,4.00
2018-10-01T12:25:08.065Z,5.00
2018-10-01T12:26:08.079Z,1.90
2018-10-01T12:27:08.081Z,3.70
2018-10-01T12:28:08.159Z,2.10
2018-10-01T12:29:08.092Z,2.50
2018-10-01T12:30:08.048Z,2.90
2018-10-01T12:31:08.056Z,13.10
2018-10-01T12:32:07.984Z,2.70
2018-10-01T12:33:08.130Z,1.80
2018-10-01T12:34:07.967Z,5.50
2018-10-01T12:35:08.065Z,3.10
2018-10-01T12:36:08.156Z,4.30
2018-10-01T12:37:07.944Z,1.80
2018-10-01T12:38:07.924Z,2.30
2018-10-01T12:39:07.977Z,4.30
2018-10-01T12:40:07.933Z,2.10
2018-10-01T12:41:07.937Z,1.40
2018-10-01T12:42:07.894Z,4.50
2018-10-01T12:43:07.906Z,3.70
2018-10-01T12:44:07.854Z,4.00
2018-10-01T12:45:07.938Z,3.20
2018-10-01T12:46:07.832Z,2.20
2018-10-01T12:47:07.960Z,5.00
2018-10-01T12:48:07.811Z,1.70
2018-10-01T12:49:07.798Z,4.10
2018-10-01T12:50:07.918Z,3.80
2018-10-01T12:51:07.862Z,1.30
2018-10-01T12:52:07.796Z,4.00
2018-10-01T12:53:07.762Z,1.80
2018-10-01T12:54:07.815Z,4.00
2018-10-01T12:55:07.738Z,11.30
2018-10-01T12:56:07.750Z,2.30
2018-10-01T12:57:07.836Z,2.40
2018-10-01T12:58:07.707Z,2.60
2018-10-01T12:59:07.733Z,3.40
2018-10-01T13:00:07.704Z,1.20
2018-10-01T13:01:07.678Z,1.20
2018-10-01T13:02:07.753Z,2.60
2018-10-01T13:03:07.647Z,1.70
2018-10-01T13:04:07.635Z,3.40
2018-10-01T13:05:07.725Z,3.30
2018-10-01T13:06:07.744Z,0.90
2018-10-01T13:07:07.632Z,2.50